sensor_id;sensor_type;location;lat;lon;timestamp;pressure;altitude;pressure_sealevel;temperature;humidity
56052;BME280;41919;42.648;23.384;2023-01-16T00:00:18;94490.16;;;2.52;85.05
56052;BME280;41919;42.648;23.384;2023-01-16T00:02:44;94487.94;;;2.57;84.87
56052;BME280;41919;42.648;23.384;2023-01-16T00:05:09;94476.63;;;2.50;84.94
56052;BME280;41919;42.648;23.384;2023-01-16T00:07:35;94481.44;;;2.53;84.96
56052;BME280;41919;42.648;23.384;2023-01-16T00:10:00;94404.56;;;2.06;84.92
56052;BME280;41919;42.648;23.384;2023-01-16T00:12:25;94461.78;;;2.44;84.66
56052;BME280;41919;42.648;23.384;2023-01-16T00:14:51;94398.78;;;2.04;84.20
56052;BME280;41919;42.648;23.384;2023-01-16T00:17:16;94479.84;;;2.52;84.40
56052;BME280;41919;42.648;23.384;2023-01-16T00:19:42;94489.25;;;2.61;83.94
56052;BME280;41919;42.648;23.384;2023-01-16T00:22:07;94486.50;;;2.63;83.85
56052;BME280;41919;42.648;23.384;2023-01-16T00:24:33;94484.34;;;2.42;84.46
56052;BME280;41919;42.648;23.384;2023-01-16T00:26:58;94490.84;;;1.93;87.19
56052;BME280;41919;42.648;23.384;2023-01-16T00:29:24;94477.22;;;1.75;88.65
56052;BME280;41919;42.648;23.384;2023-01-16T00:31:49;94447.44;;;1.54;89.40
56052;BME280;41919;42.648;23.384;2023-01-16T00:34:15;94395.38;;;1.43;89.00
56052;BME280;41919;42.648;23.384;2023-01-16T00:36:40;94469.47;;;2.01;88.48
56052;BME280;41919;42.648;23.384;2023-01-16T00:39:06;94450.84;;;1.81;89.58
56052;BME280;41919;42.648;23.384;2023-01-16T00:41:31;94458.00;;;1.95;89.28
56052;BME280;41919;42.648;23.384;2023-01-16T00:43:57;94461.25;;;1.98;88.97
56052;BME280;41919;42.648;23.384;2023-01-16T00:46:25;94389.44;;;1.42;89.98
56052;BME280;41919;42.648;23.384;2023-01-16T00:48:50;94449.16;;;1.72;91.19
56052;BME280;41919;42.648;23.384;2023-01-16T00:51:16;94444.34;;;1.69;91.48
56052;BME280;41919;42.648;23.384;2023-01-16T00:53:41;94445.72;;;1.37;92.37
56052;BME280;41919;42.648;23.384;2023-01-16T00:56:07;94442.16;;;1.56;92.20
56052;BME280;41919;42.648;23.384;2023-01-16T00:58:33;94444.16;;;1.70;91.24
56052;BME280;41919;42.648;23.384;2023-01-16T01:01:00;94446.47;;;1.82;90.59
56052;BME280;41919;42.648;23.384;2023-01-16T01:03:27;94442.19;;;1.90;89.24
56052;BME280;41919;42.648;23.384;2023-01-16T01:05:53;94452.25;;;2.02;88.64
56052;BME280;41919;42.648;23.384;2023-01-16T01:08:18;94312.09;;;1.26;87.91
56052;BME280;41919;42.648;23.384;2023-01-16T01:10:44;94434.72;;;2.05;87.72
56052;BME280;41919;42.648;23.384;2023-01-16T01:13:09;94377.84;;;1.72;87.15
56052;BME280;41919;42.648;23.384;2023-01-16T01:15:35;94446.81;;;2.13;87.38
56052;BME280;41919;42.648;23.384;2023-01-16T01:18:01;94367.31;;;1.58;87.60
56052;BME280;41919;42.648;23.384;2023-01-16T01:20:26;94430.25;;;1.89;88.68
56052;BME280;41919;42.648;23.384;2023-01-16T01:22:52;94421.91;;;1.95;88.48
56052;BME280;41919;42.648;23.384;2023-01-16T01:25:17;94436.16;;;2.08;87.39
56052;BME280;41919;42.648;23.384;2023-01-16T01:27:43;94439.78;;;2.23;86.79
56052;BME280;41919;42.648;23.384;2023-01-16T01:30:09;94446.22;;;2.27;86.19
56052;BME280;41919;42.648;23.384;2023-01-16T01:32:34;94366.47;;;1.91;85.73
56052;BME280;41919;42.648;23.384;2023-01-16T01:35:03;94292.75;;;1.48;85.16
56052;BME280;41919;42.648;23.384;2023-01-16T01:37:29;94352.63;;;1.84;84.47
56052;BME280;41919;42.648;23.384;2023-01-16T01:39:54;94426.91;;;2.31;84.70
56052;BME280;41919;42.648;23.384;2023-01-16T01:42:20;94339.69;;;1.76;85.72
56052;BME280;41919;42.648;23.384;2023-01-16T01:48:00;94410.06;;;2.11;87.74
56052;BME280;41919;42.648;23.384;2023-01-16T01:53:09;94383.06;;;1.54;91.65
56052;BME280;41919;42.648;23.384;2023-01-16T01:55:39;94382.88;;;1.48;91.87
56052;BME280;41919;42.648;23.384;2023-01-16T01:58:05;94334.81;;;1.04;91.88
56052;BME280;41919;42.648;23.384;2023-01-16T02:00:31;94355.41;;;1.04;89.03
56052;BME280;41919;42.648;23.384;2023-01-16T02:03:08;94328.97;;;0.76;88.47
56052;BME280;41919;42.648;23.384;2023-01-16T02:05:42;94388.91;;;1.12;88.20
56052;BME280;41919;42.648;23.384;2023-01-16T02:08:13;94401.25;;;1.09;88.62
56052;BME280;41919;42.648;23.384;2023-01-16T02:10:43;94392.38;;;1.03;89.00
56052;BME280;41919;42.648;23.384;2023-01-16T02:13:10;94321.19;;;0.50;88.61
56052;BME280;41919;42.648;23.384;2023-01-16T02:15:36;94390.69;;;0.76;90.41
56052;BME280;41919;42.648;23.384;2023-01-16T02:18:01;94313.63;;;0.30;90.99
56052;BME280;41919;42.648;23.384;2023-01-16T02:23:52;94392.16;;;0.96;90.17
56052;BME280;41919;42.648;23.384;2023-01-16T02:30:18;94382.81;;;0.95;90.44
56052;BME280;41919;42.648;23.384;2023-01-16T02:39:04;94375.19;;;1.30;88.47
56052;BME280;41919;42.648;23.384;2023-01-16T02:41:44;94360.44;;;1.14;88.52
56052;BME280;41919;42.648;23.384;2023-01-16T02:47:26;94276.81;;;0.48;88.91
56052;BME280;41919;42.648;23.384;2023-01-16T02:50:22;94361.38;;;1.31;88.08
56052;BME280;41919;42.648;23.384;2023-01-16T02:53:10;94370.66;;;1.50;87.22
56052;BME280;41919;42.648;23.384;2023-01-16T02:55:47;94355.03;;;1.51;85.97
56052;BME280;41919;42.648;23.384;2023-01-16T02:58:16;94295.88;;;1.33;85.46
56052;BME280;41919;42.648;23.384;2023-01-16T03:00:57;94361.56;;;1.72;84.85
56052;BME280;41919;42.648;23.384;2023-01-16T03:03:43;94350.88;;;1.59;85.77
56052;BME280;41919;42.648;23.384;2023-01-16T03:11:42;94250.44;;;1.24;83.85
56052;BME280;41919;42.648;23.384;2023-01-16T03:14:37;94261.94;;;1.38;83.81
56052;BME280;41919;42.648;23.384;2023-01-16T03:19:43;94269.44;;;1.58;83.43
56052;BME280;41919;42.648;23.384;2023-01-16T03:22:16;94336.28;;;2.10;82.71
56052;BME280;41919;42.648;23.384;2023-01-16T03:28:02;94325.97;;;2.18;82.13
56052;BME280;41919;42.648;23.384;2023-01-16T03:36:01;94318.25;;;2.18;82.12
56052;BME280;41919;42.648;23.384;2023-01-16T03:38:30;94295.97;;;2.09;81.60
56052;BME280;41919;42.648;23.384;2023-01-16T03:40:59;94223.69;;;1.51;82.07
56052;BME280;41919;42.648;23.384;2023-01-16T03:43:36;94300.81;;;2.04;82.77
56052;BME280;41919;42.648;23.384;2023-01-16T03:46:12;94298.88;;;2.06;82.78
56052;BME280;41919;42.648;23.384;2023-01-16T03:51:22;94289.56;;;2.13;82.13
56052;BME280;41919;42.648;23.384;2023-01-16T03:54:00;94299.88;;;2.13;81.98
56052;BME280;41919;42.648;23.384;2023-01-16T03:56:35;94205.22;;;1.64;81.74
56052;BME280;41919;42.648;23.384;2023-01-16T03:59:02;94279.56;;;2.18;81.47
56052;BME280;41919;42.648;23.384;2023-01-16T04:01:49;94274.91;;;2.22;81.60
56052;BME280;41919;42.648;23.384;2023-01-16T04:04:27;94132.03;;;1.24;81.51
56052;BME280;41919;42.648;23.384;2023-01-16T04:07:03;94269.41;;;2.16;82.16
56052;BME280;41919;42.648;23.384;2023-01-16T04:12:03;94278.91;;;2.16;82.35
56052;BME280;41919;42.648;23.384;2023-01-16T04:14:31;94260.69;;;2.01;82.64
56052;BME280;41919;42.648;23.384;2023-01-16T04:16:58;94179.75;;;1.53;82.24
56052;BME280;41919;42.648;23.384;2023-01-16T04:19:24;94272.97;;;2.15;82.01
56052;BME280;41919;42.648;23.384;2023-01-16T04:21:51;94229.59;;;1.86;81.79
56052;BME280;41919;42.648;23.384;2023-01-16T04:24:18;94280.22;;;2.20;81.91
56052;BME280;41919;42.648;23.384;2023-01-16T04:26:43;94272.63;;;2.19;81.89
56052;BME280;41919;42.648;23.384;2023-01-16T04:29:09;94280.53;;;2.17;82.10
56052;BME280;41919;42.648;23.384;2023-01-16T04:31:34;94184.09;;;1.52;81.87
56052;BME280;41919;42.648;23.384;2023-01-16T04:34:00;94241.50;;;1.95;81.02
56052;BME280;41919;42.648;23.384;2023-01-16T04:36:25;94258.28;;;2.08;81.15
56052;BME280;41919;42.648;23.384;2023-01-16T04:38:50;94252.00;;;2.02;81.15
56052;BME280;41919;42.648;23.384;2023-01-16T04:41:16;94197.84;;;1.77;80.67
56052;BME280;41919;42.648;23.384;2023-01-16T04:44:01;94257.97;;;2.11;80.67
56052;BME280;41919;42.648;23.384;2023-01-16T04:46:26;94242.19;;;1.98;80.37
56052;BME280;41919;42.648;23.384;2023-01-16T04:48:51;94233.47;;;1.90;80.09
56052;BME280;41919;42.648;23.384;2023-01-16T04:51:17;94177.31;;;1.51;80.13
56052;BME280;41919;42.648;23.384;2023-01-16T04:53:42;94202.47;;;1.58;79.88
56052;BME280;41919;42.648;23.384;2023-01-16T04:56:08;94260.81;;;1.83;81.05
56052;BME280;41919;42.648;23.384;2023-01-16T04:58:33;94260.97;;;1.82;81.32
56052;BME280;41919;42.648;23.384;2023-01-16T05:00:58;94252.41;;;1.73;81.53
56052;BME280;41919;42.648;23.384;2023-01-16T05:03:24;94259.78;;;1.60;82.24
56052;BME280;41919;42.648;23.384;2023-01-16T05:05:49;94192.72;;;1.27;82.67
56052;BME280;41919;42.648;23.384;2023-01-16T05:08:15;94253.53;;;1.70;82.52
56052;BME280;41919;42.648;23.384;2023-01-16T05:10:44;94255.94;;;1.72;83.27
56052;BME280;41919;42.648;23.384;2023-01-16T05:13:10;94219.19;;;1.53;83.50
56052;BME280;41919;42.648;23.384;2023-01-16T05:15:35;94163.25;;;1.21;82.79
56052;BME280;41919;42.648;23.384;2023-01-16T05:18:00;94248.50;;;1.61;83.18
56052;BME280;41919;42.648;23.384;2023-01-16T05:20:26;94174.34;;;1.13;83.66
56052;BME280;41919;42.648;23.384;2023-01-16T05:22:51;94243.34;;;1.61;83.82
56052;BME280;41919;42.648;23.384;2023-01-16T05:25:17;94167.75;;;1.19;83.37
56052;BME280;41919;42.648;23.384;2023-01-16T05:27:42;94151.47;;;1.10;83.64
56052;BME280;41919;42.648;23.384;2023-01-16T05:30:08;94139.66;;;0.91;83.98
56052;BME280;41919;42.648;23.384;2023-01-16T05:32:34;94228.88;;;1.60;83.51
56052;BME280;41919;42.648;23.384;2023-01-16T05:34:59;94171.47;;;1.25;83.37
56052;BME280;41919;42.648;23.384;2023-01-16T05:37:28;94149.81;;;1.01;83.88
56052;BME280;41919;42.648;23.384;2023-01-16T05:39:54;94144.38;;;1.04;83.72
56052;BME280;41919;42.648;23.384;2023-01-16T05:42:23;94190.44;;;1.24;84.78
56052;BME280;41919;42.648;23.384;2023-01-16T05:44:51;94119.81;;;0.75;85.38
56052;BME280;41919;42.648;23.384;2023-01-16T05:47:20;94202.25;;;1.34;85.78
56052;BME280;41919;42.648;23.384;2023-01-16T05:49:46;94206.25;;;1.37;86.11
56052;BME280;41919;42.648;23.384;2023-01-16T05:52:12;94150.31;;;1.05;85.71
56052;BME280;41919;42.648;23.384;2023-01-16T05:54:37;94221.44;;;1.48;85.76
56052;BME280;41919;42.648;23.384;2023-01-16T05:57:03;94220.09;;;1.36;86.22
56052;BME280;41919;42.648;23.384;2023-01-16T05:59:28;94126.94;;;0.90;86.69
56052;BME280;41919;42.648;23.384;2023-01-16T06:01:53;94211.28;;;1.47;87.00
56052;BME280;41919;42.648;23.384;2023-01-16T06:04:19;94122.75;;;0.89;88.18
56052;BME280;41919;42.648;23.384;2023-01-16T06:06:45;94211.56;;;1.35;87.70
56052;BME280;41919;42.648;23.384;2023-01-16T06:09:11;94120.84;;;0.56;87.78
56052;BME280;41919;42.648;23.384;2023-01-16T06:11:37;94122.91;;;0.53;87.71
56052;BME280;41919;42.648;23.384;2023-01-16T06:14:02;94189.84;;;0.95;87.56
56052;BME280;41919;42.648;23.384;2023-01-16T06:16:30;94184.19;;;0.92;88.22
56052;BME280;41919;42.648;23.384;2023-01-16T06:18:56;94194.59;;;1.16;88.67
56052;BME280;41919;42.648;23.384;2023-01-16T06:21:21;94193.38;;;1.29;88.83
56052;BME280;41919;42.648;23.384;2023-01-16T06:23:47;94118.91;;;0.93;94.16
56052;BME280;41919;42.648;23.384;2023-01-16T06:26:12;94149.25;;;1.24;100.00
56052;BME280;41919;42.648;23.384;2023-01-16T06:28:38;94189.91;;;1.63;100.00
56052;BME280;41919;42.648;23.384;2023-01-16T06:31:05;94171.25;;;1.69;100.00
56052;BME280;41919;42.648;23.384;2023-01-16T06:33:30;94213.66;;;2.07;100.00
56052;BME280;41919;42.648;23.384;2023-01-16T06:35:56;94183.84;;;2.05;100.00
56052;BME280;41919;42.648;23.384;2023-01-16T06:38:22;94206.59;;;2.42;97.32
56052;BME280;41919;42.648;23.384;2023-01-16T06:40:48;94129.41;;;2.16;93.96
56052;BME280;41919;42.648;23.384;2023-01-16T06:43:14;94129.69;;;2.29;91.83
56052;BME280;41919;42.648;23.384;2023-01-16T06:45:42;94220.72;;;2.96;87.14
56052;BME280;41919;42.648;23.384;2023-01-16T06:48:07;94210.84;;;3.07;83.82
56052;BME280;41919;42.648;23.384;2023-01-16T06:50:33;94148.97;;;2.66;82.54
56052;BME280;41919;42.648;23.384;2023-01-16T06:52:58;94221.56;;;3.27;82.49
56052;BME280;41919;42.648;23.384;2023-01-16T06:55:24;94183.66;;;3.20;81.83
56052;BME280;41919;42.648;23.384;2023-01-16T06:57:50;94131.16;;;2.96;81.41
56052;BME280;41919;42.648;23.384;2023-01-16T07:00:16;94187.25;;;3.50;80.61
56052;BME280;41919;42.648;23.384;2023-01-16T07:02:41;94192.91;;;3.53;80.36
56052;BME280;41919;42.648;23.384;2023-01-16T07:05:10;94194.75;;;3.68;79.88
56052;BME280;41919;42.648;23.384;2023-01-16T07:07:36;94163.47;;;3.54;79.52
56052;BME280;41919;42.648;23.384;2023-01-16T07:10:02;94214.06;;;3.49;80.43
56052;BME280;41919;42.648;23.384;2023-01-16T07:12:28;94206.69;;;2.82;83.65
56052;BME280;41919;42.648;23.384;2023-01-16T07:14:53;94215.41;;;2.64;85.47
56052;BME280;41919;42.648;23.384;2023-01-16T07:17:38;94209.31;;;2.57;86.93
56052;BME280;41919;42.648;23.384;2023-01-16T07:20:22;94184.63;;;2.54;86.93
56052;BME280;41919;42.648;23.384;2023-01-16T07:23:27;94181.91;;;2.31;88.12
56052;BME280;41919;42.648;23.384;2023-01-16T07:25:56;94208.66;;;2.22;89.96
56052;BME280;41919;42.648;23.384;2023-01-16T07:28:23;94168.06;;;2.08;89.50
56052;BME280;41919;42.648;23.384;2023-01-16T07:30:49;94175.31;;;2.12;90.25
56052;BME280;41919;42.648;23.384;2023-01-16T07:33:15;94104.59;;;1.74;90.18
56052;BME280;41919;42.648;23.384;2023-01-16T07:35:41;94184.47;;;2.56;89.43
56052;BME280;41919;42.648;23.384;2023-01-16T07:38:06;94169.25;;;2.94;86.90
56052;BME280;41919;42.648;23.384;2023-01-16T07:40:32;94190.34;;;3.45;84.37
56052;BME280;41919;42.648;23.384;2023-01-16T07:42:57;94190.16;;;3.47;83.03
56052;BME280;41919;42.648;23.384;2023-01-16T07:45:23;94142.34;;;3.20;83.77
56052;BME280;41919;42.648;23.384;2023-01-16T07:47:48;94170.06;;;3.34;84.02
56052;BME280;41919;42.648;23.384;2023-01-16T07:50:14;94114.53;;;2.99;83.67
56052;BME280;41919;42.648;23.384;2023-01-16T07:52:39;94184.47;;;3.60;82.55
56052;BME280;41919;42.648;23.384;2023-01-16T07:55:05;94171.06;;;3.87;81.01
56052;BME280;41919;42.648;23.384;2023-01-16T07:57:30;94109.13;;;3.71;79.75
56052;BME280;41919;42.648;23.384;2023-01-16T07:59:56;94153.31;;;4.07;79.27
56052;BME280;41919;42.648;23.384;2023-01-16T08:02:21;94069.59;;;3.62;79.05
56052;BME280;41919;42.648;23.384;2023-01-16T08:04:47;94065.25;;;3.86;78.20
56052;BME280;41919;42.648;23.384;2023-01-16T08:07:12;94118.84;;;4.30;77.67
56052;BME280;41919;42.648;23.384;2023-01-16T08:09:38;93949.53;;;2.89;77.06
56052;BME280;41919;42.648;23.384;2023-01-16T08:12:03;94125.19;;;3.81;80.07
56052;BME280;41919;42.648;23.384;2023-01-16T08:14:29;94081.63;;;3.78;78.96
56052;BME280;41919;42.648;23.384;2023-01-16T08:16:54;94060.00;;;3.94;77.63
56052;BME280;41919;42.648;23.384;2023-01-16T08:19:20;94116.34;;;4.37;76.69
56052;BME280;41919;42.648;23.384;2023-01-16T08:21:45;94065.50;;;3.91;76.59
56052;BME280;41919;42.648;23.384;2023-01-16T08:24:11;94125.75;;;4.53;76.12
56052;BME280;41919;42.648;23.384;2023-01-16T08:26:39;94079.47;;;4.20;75.48
56052;BME280;41919;42.648;23.384;2023-01-16T08:29:04;94171.13;;;4.78;75.34
56052;BME280;41919;42.648;23.384;2023-01-16T08:31:30;94083.47;;;4.45;75.63
56052;BME280;41919;42.648;23.384;2023-01-16T08:33:56;94151.44;;;5.43;73.77
56052;BME280;41919;42.648;23.384;2023-01-16T08:36:21;94120.09;;;5.60;72.49
56052;BME280;41919;42.648;23.384;2023-01-16T08:38:48;94072.97;;;6.42;68.47
56052;BME280;41919;42.648;23.384;2023-01-16T08:41:15;94105.34;;;7.91;63.56
56052;BME280;41919;42.648;23.384;2023-01-16T08:43:59;94126.84;;;8.53;61.79
56052;BME280;41919;42.648;23.384;2023-01-16T08:46:44;94068.47;;;8.94;59.05
56052;BME280;41919;42.648;23.384;2023-01-16T08:49:31;94112.09;;;10.02;56.03
56052;BME280;41919;42.648;23.384;2023-01-16T08:52:15;94033.38;;;10.31;53.82
56052;BME280;41919;42.648;23.384;2023-01-16T08:54:40;94108.09;;;10.82;53.15
56052;BME280;41919;42.648;23.384;2023-01-16T08:57:06;94053.53;;;9.92;54.17
56052;BME280;41919;42.648;23.384;2023-01-16T08:59:32;94111.91;;;9.20;57.38
56052;BME280;41919;42.648;23.384;2023-01-16T09:02:02;94113.59;;;8.88;58.07
56052;BME280;41919;42.648;23.384;2023-01-16T09:04:30;94111.03;;;8.48;59.78
56052;BME280;41919;42.648;23.384;2023-01-16T09:06:55;94100.75;;;7.87;61.60
56052;BME280;41919;42.648;23.384;2023-01-16T09:09:21;94085.94;;;7.19;63.74
56052;BME280;41919;42.648;23.384;2023-01-16T09:11:53;94096.84;;;6.94;65.17
56052;BME280;41919;42.648;23.384;2023-01-16T09:14:37;94062.50;;;6.99;65.20
56052;BME280;41919;42.648;23.384;2023-01-16T09:17:03;94092.31;;;6.68;67.42
56052;BME280;41919;42.648;23.384;2023-01-16T09:19:28;94082.84;;;5.82;70.44
56052;BME280;41919;42.648;23.384;2023-01-16T09:21:53;94021.88;;;5.43;70.93
56052;BME280;41919;42.648;23.384;2023-01-16T09:24:19;94084.81;;;5.80;71.40
56052;BME280;41919;42.648;23.384;2023-01-16T09:26:44;94072.06;;;5.06;74.62
56052;BME280;41919;42.648;23.384;2023-01-16T09:29:10;94016.34;;;4.44;75.74
56052;BME280;41919;42.648;23.384;2023-01-16T09:31:35;93988.88;;;4.13;77.20
56052;BME280;41919;42.648;23.384;2023-01-16T09:34:00;93997.41;;;4.73;75.69
56052;BME280;41919;42.648;23.384;2023-01-16T09:36:26;94057.72;;;5.03;76.48
56052;BME280;41919;42.648;23.384;2023-01-16T09:38:51;94040.44;;;4.59;77.19
56052;BME280;41919;42.648;23.384;2023-01-16T09:41:18;93976.13;;;4.11;78.31
56052;BME280;41919;42.648;23.384;2023-01-16T09:44:03;94059.63;;;4.20;79.24
56052;BME280;41919;42.648;23.384;2023-01-16T09:46:35;94043.53;;;3.95;79.87
56052;BME280;41919;42.648;23.384;2023-01-16T09:49:17;93973.31;;;3.83;80.25
56052;BME280;41919;42.648;23.384;2023-01-16T09:51:52;94034.34;;;4.82;78.71
56052;BME280;41919;42.648;23.384;2023-01-16T09:54:43;94039.91;;;5.15;76.47
56052;BME280;41919;42.648;23.384;2023-01-16T09:57:29;93940.56;;;4.65;75.92
56052;BME280;41919;42.648;23.384;2023-01-16T10:00:16;93959.25;;;4.97;74.77
56052;BME280;41919;42.648;23.384;2023-01-16T10:02:42;94000.66;;;5.33;75.09
56052;BME280;41919;42.648;23.384;2023-01-16T10:05:09;94009.16;;;5.70;74.53
56052;BME280;41919;42.648;23.384;2023-01-16T10:15:42;93945.06;;;5.14;74.67
56052;BME280;41919;42.648;23.384;2023-01-16T10:18:37;94004.28;;;5.88;73.30
56052;BME280;41919;42.648;23.384;2023-01-16T10:31:42;93973.28;;;5.74;72.81
56052;BME280;41919;42.648;23.384;2023-01-16T10:34:24;93951.81;;;5.58;72.10
56052;BME280;41919;42.648;23.384;2023-01-16T10:36:53;93948.38;;;5.51;72.53
56052;BME280;41919;42.648;23.384;2023-01-16T10:39:21;93945.53;;;5.46;73.55
56052;BME280;41919;42.648;23.384;2023-01-16T10:41:51;93878.72;;;4.91;73.55
56052;BME280;41919;42.648;23.384;2023-01-16T10:47:58;93904.44;;;5.71;73.00
56052;BME280;41919;42.648;23.384;2023-01-16T10:50:42;93865.38;;;5.73;70.92
56052;BME280;41919;42.648;23.384;2023-01-16T10:53:10;93859.16;;;5.95;69.53
56052;BME280;41919;42.648;23.384;2023-01-16T10:55:39;93911.63;;;6.39;69.25
56052;BME280;41919;42.648;23.384;2023-01-16T10:58:33;93923.84;;;6.45;68.59
56052;BME280;41919;42.648;23.384;2023-01-16T11:01:13;93852.03;;;6.17;68.63
56052;BME280;41919;42.648;23.384;2023-01-16T11:03:44;93884.53;;;6.61;68.15
56052;BME280;41919;42.648;23.384;2023-01-16T11:08:38;93863.81;;;6.75;67.21
56052;BME280;41919;42.648;23.384;2023-01-16T11:11:04;93852.25;;;6.77;66.94
56052;BME280;41919;42.648;23.384;2023-01-16T11:13:31;93800.22;;;6.37;67.28
56052;BME280;41919;42.648;23.384;2023-01-16T11:16:26;93846.34;;;6.42;68.39
56052;BME280;41919;42.648;23.384;2023-01-16T11:19:17;93825.34;;;6.30;67.72
56052;BME280;41919;42.648;23.384;2023-01-16T11:21:48;93857.19;;;6.59;68.29
56052;BME280;41919;42.648;23.384;2023-01-16T11:24:20;93789.66;;;6.39;67.97
56052;BME280;41919;42.648;23.384;2023-01-16T11:26:51;93793.59;;;6.21;68.07
56052;BME280;41919;42.648;23.384;2023-01-16T11:29:19;93876.19;;;6.73;68.19
56052;BME280;41919;42.648;23.384;2023-01-16T11:31:52;93861.81;;;6.77;68.33
56052;BME280;41919;42.648;23.384;2023-01-16T11:34:22;93865.03;;;6.92;67.36
56052;BME280;41919;42.648;23.384;2023-01-16T11:36:53;93866.66;;;6.86;68.03
56052;BME280;41919;42.648;23.384;2023-01-16T11:39:22;93793.66;;;6.61;67.33
56052;BME280;41919;42.648;23.384;2023-01-16T11:41:51;93769.91;;;6.64;66.94
56052;BME280;41919;42.648;23.384;2023-01-16T11:44:23;93784.91;;;6.76;66.91
56052;BME280;41919;42.648;23.384;2023-01-16T11:47:17;93844.69;;;7.29;66.28
56052;BME280;41919;42.648;23.384;2023-01-16T11:49:48;93836.88;;;7.36;65.78
56052;BME280;41919;42.648;23.384;2023-01-16T11:52:17;93813.50;;;7.16;66.38
56052;BME280;41919;42.648;23.384;2023-01-16T11:54:56;93834.44;;;7.61;65.40
56052;BME280;41919;42.648;23.384;2023-01-16T11:57:53;93837.84;;;7.68;64.80
56052;BME280;41919;42.648;23.384;2023-01-16T12:03:33;93795.91;;;7.18;65.04
56052;BME280;41919;42.648;23.384;2023-01-16T12:14:10;93812.03;;;7.66;64.14
56052;BME280;41919;42.648;23.384;2023-01-16T12:17:20;93805.59;;;7.82;62.56
56052;BME280;41919;42.648;23.384;2023-01-16T12:28:14;93782.47;;;7.54;63.80
56052;BME280;41919;42.648;23.384;2023-01-16T12:34:42;93772.47;;;7.44;64.63
56052;BME280;41919;42.648;23.384;2023-01-16T12:46:06;93747.53;;;7.17;65.14
56052;BME280;41919;42.648;23.384;2023-01-16T12:51:31;93699.00;;;6.97;65.44
56052;BME280;41919;42.648;23.384;2023-01-16T12:59:51;93734.19;;;6.86;66.88
56052;BME280;41919;42.648;23.384;2023-01-16T13:02:36;93747.53;;;6.90;66.38
56052;BME280;41919;42.648;23.384;2023-01-16T13:05:06;93728.00;;;6.67;66.83
56052;BME280;41919;42.648;23.384;2023-01-16T13:07:44;93718.00;;;6.51;67.52
56052;BME280;41919;42.648;23.384;2023-01-16T13:10:19;93702.78;;;6.48;67.89
56052;BME280;41919;42.648;23.384;2023-01-16T13:13:14;93717.78;;;6.53;68.23
56052;BME280;41919;42.648;23.384;2023-01-16T13:16:02;93651.66;;;6.02;69.54
56052;BME280;41919;42.648;23.384;2023-01-16T13:18:38;93626.75;;;6.01;70.08
56052;BME280;41919;42.648;23.384;2023-01-16T13:21:08;93631.34;;;6.12;69.63
56052;BME280;41919;42.648;23.384;2023-01-16T13:24:03;93679.63;;;6.26;70.01
56052;BME280;41919;42.648;23.384;2023-01-16T13:26:27;93695.63;;;6.37;70.19
56052;BME280;41919;42.648;23.384;2023-01-16T13:29:32;93669.69;;;6.37;70.18
56052;BME280;41919;42.648;23.384;2023-01-16T13:32:21;93672.03;;;6.12;71.34
56052;BME280;41919;42.648;23.384;2023-01-16T13:34:58;93676.81;;;6.01;71.69
56052;BME280;41919;42.648;23.384;2023-01-16T13:43:38;93672.44;;;6.15;71.59
56052;BME280;41919;42.648;23.384;2023-01-16T13:46:23;93670.84;;;6.21;71.33
56052;BME280;41919;42.648;23.384;2023-01-16T13:48:53;93627.31;;;5.96;70.98
56052;BME280;41919;42.648;23.384;2023-01-16T13:51:21;93618.31;;;5.85;71.13
56052;BME280;41919;42.648;23.384;2023-01-16T13:53:55;93669.66;;;6.10;71.79
56052;BME280;41919;42.648;23.384;2023-01-16T13:56:24;93661.06;;;6.03;72.23
56052;BME280;41919;42.648;23.384;2023-01-16T13:59:02;93573.63;;;5.83;71.40
56052;BME280;41919;42.648;23.384;2023-01-16T14:09:57;93639.31;;;6.44;69.46
56052;BME280;41919;42.648;23.384;2023-01-16T14:12:34;93641.91;;;6.37;68.19
56052;BME280;41919;42.648;23.384;2023-01-16T14:15:22;93633.75;;;6.14;68.19
56052;BME280;41919;42.648;23.384;2023-01-16T14:18:15;93646.28;;;5.97;68.92
56052;BME280;41919;42.648;23.384;2023-01-16T14:23:25;93655.28;;;6.01;69.24
56052;BME280;41919;42.648;23.384;2023-01-16T14:26:17;93643.63;;;5.83;69.56
56052;BME280;41919;42.648;23.384;2023-01-16T14:28:46;93645.22;;;5.84;69.77
56052;BME280;41919;42.648;23.384;2023-01-16T14:31:38;93655.16;;;5.67;70.61
56052;BME280;41919;42.648;23.384;2023-01-16T14:34:04;93647.97;;;5.63;70.96
56052;BME280;41919;42.648;23.384;2023-01-16T14:36:33;93632.75;;;5.46;71.02
56052;BME280;41919;42.648;23.384;2023-01-16T14:39:00;93646.72;;;5.52;71.19
56052;BME280;41919;42.648;23.384;2023-01-16T14:41:29;93648.34;;;5.60;71.24
56052;BME280;41919;42.648;23.384;2023-01-16T14:56:10;93631.69;;;5.21;72.75
56052;BME280;41919;42.648;23.384;2023-01-16T14:58:40;93653.47;;;5.33;72.65
56052;BME280;41919;42.648;23.384;2023-01-16T15:01:16;93647.41;;;5.19;72.95
56052;BME280;41919;42.648;23.384;2023-01-16T15:04:01;93539.53;;;4.50;73.88
56052;BME280;41919;42.648;23.384;2023-01-16T15:06:36;93604.00;;;4.80;74.44
56052;BME280;41919;42.648;23.384;2023-01-16T15:09:03;93660.94;;;5.15;74.03
56052;BME280;41919;42.648;23.384;2023-01-16T15:11:31;93636.13;;;4.92;74.83
56052;BME280;41919;42.648;23.384;2023-01-16T15:14:16;93588.31;;;4.88;74.23
56052;BME280;41919;42.648;23.384;2023-01-16T15:16:58;93630.28;;;5.25;73.68
56052;BME280;41919;42.648;23.384;2023-01-16T15:22:47;93632.47;;;4.80;75.46
56052;BME280;41919;42.648;23.384;2023-01-16T15:27:50;93576.19;;;4.25;76.14
56052;BME280;41919;42.648;23.384;2023-01-16T15:30:17;93627.41;;;4.65;76.11
56052;BME280;41919;42.648;23.384;2023-01-16T15:32:57;93627.38;;;4.93;75.62
56052;BME280;41919;42.648;23.384;2023-01-16T15:35:43;93604.63;;;4.82;75.37
56052;BME280;41919;42.648;23.384;2023-01-16T15:38:09;93542.03;;;4.02;76.61
56052;BME280;41919;42.648;23.384;2023-01-16T15:40:36;93659.50;;;4.70;76.41
56052;BME280;41919;42.648;23.384;2023-01-16T15:43:02;93646.88;;;4.89;75.75